createdAt,value
2019-03-20T00:02:21.256Z,230
2019-03-20T00:07:21.302Z,229
2019-03-20T00:12:21.286Z,229
2019-03-20T00:17:21.271Z,227
2019-03-20T00:22:21.224Z,229
2019-03-20T00:27:21.299Z,229
2019-03-20T00:31:58.182Z,230
2019-03-20T00:32:02.193Z,230
2019-03-20T00:32:21.244Z,230
2019-03-20T00:37:21.255Z,232
2019-03-20T00:41:50.178Z,232
2019-03-20T00:42:06.148Z,232
2019-03-20T00:42:24.191Z,231
2019-03-20T00:47:24.206Z,233
2019-03-20T00:47:54.181Z,233
2019-03-20T00:48:10.170Z,233
2019-03-20T00:52:24.214Z,232
2019-03-20T00:57:24.251Z,232
2019-03-20T01:00:42.150Z,232
2019-03-20T01:00:50.160Z,233
2019-03-20T01:02:24.197Z,234
2019-03-20T01:03:26.147Z,233
2019-03-20T01:03:30.186Z,234
2019-03-20T01:07:24.187Z,234
2019-03-20T01:12:24.224Z,234
2019-03-20T01:17:24.148Z,234
2019-03-20T01:17:29.153Z,234
2019-03-20T01:17:33.140Z,234
2019-03-20T01:22:24.154Z,233
2019-03-20T01:27:24.144Z,233
2019-03-20T01:32:24.197Z,232
2019-03-20T01:37:24.151Z,233
2019-03-20T01:38:13.109Z,233
2019-03-20T01:38:25.117Z,233
2019-03-20T01:42:24.173Z,233
2019-03-20T01:47:24.164Z,232
2019-03-20T01:52:24.142Z,232
2019-03-20T01:57:24.145Z,233
2019-03-20T02:02:24.141Z,233
2019-03-20T02:04:05.091Z,234
2019-03-20T02:04:09.085Z,234
2019-03-20T02:07:24.109Z,233
2019-03-20T02:09:09.110Z,234
2019-03-20T02:09:13.101Z,234
2019-03-20T02:10:29.098Z,233
2019-03-20T02:10:33.065Z,233
2019-03-20T02:12:24.128Z,233
2019-03-20T02:14:33.107Z,235
2019-03-20T02:14:37.091Z,235
2019-03-20T02:14:57.084Z,235
2019-03-20T02:15:09.063Z,235
2019-03-20T02:17:24.135Z,235
2019-03-20T02:22:24.130Z,235
2019-03-20T02:25:21.087Z,234
2019-03-20T02:25:25.061Z,234
2019-03-20T02:26:09.067Z,235
2019-03-20T02:26:13.076Z,234
2019-03-20T02:27:24.097Z,234
2019-03-20T02:29:41.038Z,235
2019-03-20T02:30:09.076Z,234
2019-03-20T02:31:45.056Z,234
2019-03-20T02:31:49.073Z,233
2019-03-20T02:32:24.110Z,233
2019-03-20T02:37:24.115Z,233
2019-03-20T02:39:13.056Z,234
2019-03-20T02:39:17.071Z,233
2019-03-20T02:42:24.088Z,233
2019-03-20T02:47:24.098Z,234
2019-03-20T02:52:24.115Z,235
2019-03-20T02:57:24.104Z,235
2019-03-20T02:59:29.028Z,233
2019-03-20T02:59:33.043Z,233
2019-03-20T03:02:24.090Z,232
2019-03-20T03:07:24.102Z,233
2019-03-20T03:09:57.044Z,234
2019-03-20T03:10:01.017Z,234
2019-03-20T03:12:24.092Z,234
2019-03-20T03:17:24.050Z,235
2019-03-20T03:22:24.072Z,235
2019-03-20T03:27:24.080Z,232
2019-03-20T03:32:24.074Z,231
2019-03-20T03:33:25.032Z,232
2019-03-20T03:33:29.002Z,232
2019-03-20T03:37:24.042Z,233
2019-03-20T03:42:24.051Z,229
2019-03-20T03:47:24.023Z,232
2019-03-20T03:50:31.990Z,231
2019-03-20T03:50:51.994Z,232
2019-03-20T03:52:24.049Z,231
2019-03-20T03:52:28.033Z,230
2019-03-20T03:52:44.009Z,231
2019-03-20T03:57:24.031Z,230
2019-03-20T04:02:24.026Z,234
2019-03-20T04:07:24.065Z,230
2019-03-20T04:12:24.075Z,231
2019-03-20T04:17:24.008Z,228
2019-03-20T04:22:24.033Z,228
2019-03-20T04:26:11.975Z,227
2019-03-20T04:26:15.971Z,227
2019-03-20T04:27:24.029Z,227
2019-03-20T04:32:24.020Z,227
2019-03-20T04:37:23.979Z,223
2019-03-20T04:42:24.018Z,223
2019-03-20T04:47:24.033Z,226
2019-03-20T04:50:07.935Z,225
2019-03-20T04:50:11.967Z,225
2019-03-20T04:52:23.969Z,223
2019-03-20T04:57:24.001Z,224
2019-03-20T05:02:24.018Z,219
2019-03-20T05:07:23.953Z,218
2019-03-20T05:12:23.969Z,222
2019-03-20T05:17:23.988Z,220
2019-03-20T05:22:23.959Z,219
2019-03-20T05:27:23.965Z,217
2019-03-20T05:32:23.984Z,216
2019-03-20T05:37:23.919Z,217
2019-03-20T05:42:23.942Z,216
2019-03-20T05:47:23.948Z,217
2019-03-20T05:52:23.966Z,220
2019-03-20T05:57:23.910Z,226
2019-03-20T06:02:25.767Z,222
2019-03-20T06:07:23.901Z,222
2019-03-20T06:12:23.917Z,221
2019-03-20T06:17:23.929Z,223
2019-03-20T06:22:23.921Z,220
2019-03-20T06:27:23.912Z,221
2019-03-20T06:32:23.947Z,224
2019-03-20T06:37:32.098Z,220
2019-03-20T06:42:23.963Z,220
2019-03-20T06:47:23.879Z,220
2019-03-20T06:52:23.876Z,218
2019-03-20T06:57:23.873Z,218
2019-03-20T07:02:23.890Z,226
2019-03-20T07:07:23.852Z,223
2019-03-20T07:12:23.858Z,222
2019-03-20T07:17:23.895Z,223
2019-03-20T07:22:23.870Z,219
2019-03-20T07:27:23.870Z,221
2019-03-20T07:32:23.845Z,224
2019-03-20T07:37:23.861Z,225
2019-03-20T07:42:23.855Z,223
2019-03-20T07:47:23.811Z,223
2019-03-20T07:52:23.830Z,226
2019-03-20T07:57:23.796Z,225
2019-03-20T08:02:23.825Z,225
2019-03-20T08:07:23.873Z,226
2019-03-20T08:12:23.851Z,226
2019-03-20T08:17:23.808Z,226
2019-03-20T08:22:23.801Z,225
2019-03-20T08:27:23.812Z,229
2019-03-20T08:32:23.802Z,228
2019-03-20T08:37:23.792Z,229
2019-03-20T08:42:23.752Z,225
2019-03-20T08:47:23.805Z,228
2019-03-20T08:52:23.821Z,227
2019-03-20T08:57:23.785Z,222
2019-03-20T09:01:28.664Z,223
2019-03-20T09:01:29.702Z,224
2019-03-20T09:02:23.750Z,222
2019-03-20T09:07:23.756Z,225
2019-03-20T09:12:23.770Z,223
2019-03-20T09:17:23.773Z,226
2019-03-20T09:22:23.777Z,228
2019-03-20T09:22:33.683Z,228
2019-03-20T09:23:25.722Z,227
2019-03-20T09:27:23.745Z,225
2019-03-20T09:32:23.718Z,222
2019-03-20T09:37:23.745Z,222
2019-03-20T09:42:23.701Z,222
2019-03-20T09:47:23.702Z,224
2019-03-20T09:52:23.756Z,223
2019-03-20T09:57:23.753Z,227
2019-03-20T10:02:23.701Z,224
2019-03-20T10:07:23.707Z,228
2019-03-20T10:10:13.649Z,225
2019-03-20T10:10:21.673Z,224
2019-03-20T10:12:23.675Z,227
2019-03-20T10:17:23.683Z,228
2019-03-20T10:22:23.711Z,225
2019-03-20T10:27:23.681Z,227
2019-03-20T10:32:23.719Z,226
2019-03-20T10:37:23.707Z,226
2019-03-20T10:42:23.669Z,229
2019-03-20T10:43:13.647Z,229
2019-03-20T10:43:17.624Z,229
2019-03-20T10:47:23.701Z,228
2019-03-20T10:52:23.681Z,229
2019-03-20T10:57:23.711Z,229
2019-03-20T10:57:33.627Z,229
2019-03-20T10:57:37.638Z,229
2019-03-20T11:02:23.669Z,230
2019-03-20T11:07:23.680Z,229
2019-03-20T11:12:23.696Z,229
2019-03-20T11:17:23.663Z,227
2019-03-20T11:22:23.629Z,223
2019-03-20T11:27:27.441Z,227
2019-03-20T11:32:23.604Z,227
2019-03-20T11:37:23.611Z,227
2019-03-20T11:42:23.661Z,225
2019-03-20T11:47:23.604Z,224
2019-03-20T11:52:23.643Z,225
2019-03-20T11:57:23.594Z,228
2019-03-20T12:02:27.924Z,230
2019-03-20T12:07:23.606Z,232
2019-03-20T12:12:23.599Z,227
2019-03-20T12:17:23.619Z,226
2019-03-20T12:22:23.613Z,223
2019-03-20T12:27:23.571Z,227
2019-03-20T12:29:12.530Z,229
2019-03-20T12:29:28.515Z,228
2019-03-20T12:32:23.579Z,231
2019-03-20T12:33:56.561Z,229
2019-03-20T12:34:02.217Z,227
2019-03-20T12:37:23.583Z,230
2019-03-20T12:42:23.586Z,231
2019-03-20T12:47:23.578Z,228
2019-03-20T12:52:23.583Z,227
2019-03-20T12:57:23.562Z,226
2019-03-20T13:02:23.553Z,227
2019-03-20T13:07:23.553Z,232
2019-03-20T13:12:23.554Z,229
2019-03-20T13:17:23.531Z,232
2019-03-20T13:22:23.552Z,230
2019-03-20T13:27:23.548Z,229
2019-03-20T13:32:23.535Z,229
2019-03-20T13:36:45.112Z,229
2019-03-20T13:36:48.497Z,228
2019-03-20T13:37:23.523Z,229
2019-03-20T13:41:21.492Z,227
2019-03-20T13:41:32.453Z,226
2019-03-20T13:42:23.491Z,227
2019-03-20T13:47:23.510Z,229
2019-03-20T13:52:23.503Z,229
2019-03-20T13:57:23.487Z,229
2019-03-20T14:02:23.536Z,229
2019-03-20T14:07:23.485Z,227
2019-03-20T14:12:23.466Z,226
2019-03-20T14:17:23.525Z,225
2019-03-20T14:22:23.489Z,229
2019-03-20T14:27:23.478Z,227
2019-03-20T14:32:23.507Z,224
2019-03-20T14:37:23.478Z,228
2019-03-20T14:42:23.457Z,228
2019-03-20T14:47:23.501Z,225
2019-03-20T14:52:23.457Z,227
2019-03-20T14:57:23.456Z,226
2019-03-20T15:02:23.476Z,225
2019-03-20T15:07:23.441Z,225
2019-03-20T15:12:23.435Z,228
2019-03-20T15:12:55.391Z,228
2019-03-20T15:12:59.398Z,227
2019-03-20T15:17:23.440Z,226
2019-03-20T15:17:59.366Z,230
2019-03-20T15:18:03.379Z,229
2019-03-20T15:22:23.402Z,231
2019-03-20T15:27:23.439Z,220
2019-03-20T15:32:23.455Z,223
2019-03-20T15:37:23.389Z,222
2019-03-20T15:42:23.423Z,224
2019-03-20T15:47:23.423Z,225
2019-03-20T15:52:23.401Z,222
2019-03-20T15:57:23.421Z,217
2019-03-20T16:02:23.382Z,223
2019-03-20T16:07:23.378Z,223
2019-03-20T16:12:23.390Z,220
2019-03-20T16:17:23.418Z,219
2019-03-20T16:22:23.361Z,218
2019-03-20T16:27:23.393Z,218
2019-03-20T16:32:23.369Z,218
2019-03-20T16:37:23.354Z,213
2019-03-20T16:42:23.331Z,214
2019-03-20T16:47:23.391Z,215
2019-03-20T16:52:23.360Z,214
2019-03-20T16:56:38.291Z,215
2019-03-20T16:56:50.319Z,215
2019-03-20T16:57:23.360Z,218
2019-03-20T17:02:23.381Z,217
2019-03-20T17:07:23.327Z,216
2019-03-20T17:12:23.321Z,219
2019-03-20T17:17:23.315Z,219
2019-03-20T17:22:23.324Z,216
2019-03-20T17:27:23.337Z,220
2019-03-20T17:32:23.331Z,217
2019-03-20T17:37:23.310Z,220
2019-03-20T17:42:23.315Z,213
2019-03-20T17:47:23.339Z,216
2019-03-20T17:52:23.301Z,219
2019-03-20T17:57:23.290Z,217
2019-03-20T18:02:24.113Z,224
2019-03-20T18:07:23.297Z,222
2019-03-20T18:12:23.264Z,217
2019-03-20T18:17:23.271Z,220
2019-03-20T18:22:23.275Z,218
2019-03-20T18:27:23.249Z,219
2019-03-20T18:32:23.297Z,221
2019-03-20T18:37:23.350Z,224
2019-03-20T18:42:23.269Z,224
2019-03-20T18:47:23.266Z,219
2019-03-20T18:52:23.249Z,220
2019-03-20T18:57:23.233Z,218
2019-03-20T19:02:23.271Z,220
2019-03-20T19:07:23.245Z,218
2019-03-20T19:12:23.228Z,218
2019-03-20T19:17:23.228Z,220
2019-03-20T19:22:23.256Z,226
2019-03-20T19:27:23.244Z,228
2019-03-20T19:32:23.218Z,224
2019-03-20T19:37:23.245Z,217
2019-03-20T19:42:23.207Z,218
2019-03-20T19:47:23.166Z,216
2019-03-20T19:52:23.231Z,218
2019-03-20T19:57:23.197Z,220
2019-03-20T20:02:23.197Z,219
2019-03-20T20:07:23.173Z,220
2019-03-20T20:12:30.997Z,224
2019-03-20T20:17:23.168Z,227
2019-03-20T20:17:37.139Z,226
2019-03-20T20:17:41.122Z,227
2019-03-20T20:22:23.176Z,221
2019-03-20T20:27:23.149Z,226
2019-03-20T20:32:23.143Z,225
2019-03-20T20:37:23.148Z,226
2019-03-20T20:42:23.127Z,226
2019-03-20T20:47:23.155Z,226
2019-03-20T20:52:23.178Z,223
2019-03-20T20:57:23.110Z,223
2019-03-20T21:00:01.109Z,224
2019-03-20T21:00:17.092Z,223
2019-03-20T21:02:23.135Z,225
2019-03-20T21:07:23.166Z,223
2019-03-20T21:12:23.118Z,229
2019-03-20T21:17:23.117Z,227
2019-03-20T21:22:23.125Z,228
2019-03-20T21:27:23.120Z,228
2019-03-20T21:32:23.094Z,229
2019-03-20T21:34:37.063Z,226
2019-03-20T21:34:41.055Z,226
2019-03-20T21:37:23.114Z,228
2019-03-20T21:42:23.114Z,226
2019-03-20T21:47:23.074Z,227
2019-03-20T21:52:23.076Z,230
2019-03-20T21:57:23.091Z,225
2019-03-20T22:02:23.097Z,225
2019-03-20T22:07:23.083Z,226
2019-03-20T22:12:23.082Z,225
2019-03-20T22:17:23.069Z,224
2019-03-20T22:22:23.098Z,225
2019-03-20T22:27:23.063Z,227
2019-03-20T22:32:23.015Z,226
2019-03-20T22:37:23.075Z,226
2019-03-20T22:40:31.996Z,228
2019-03-20T22:40:35.990Z,227
2019-03-20T22:42:23.039Z,227
2019-03-20T22:47:23.070Z,228
2019-03-20T22:52:23.028Z,227
2019-03-20T22:57:23.003Z,229
2019-03-20T23:02:23.035Z,228
2019-03-20T23:07:23.026Z,230
2019-03-20T23:12:23.032Z,231
2019-03-20T23:17:20.003Z,230
2019-03-20T23:17:23.031Z,230
2019-03-20T23:17:27.939Z,230
2019-03-20T23:22:23.019Z,231
2019-03-20T23:27:22.990Z,233
2019-03-20T23:32:23.001Z,230
2019-03-20T23:37:23.012Z,232
2019-03-20T23:41:35.956Z,232
2019-03-20T23:41:39.917Z,232
2019-03-20T23:42:22.972Z,232
2019-03-20T23:47:23.041Z,233
2019-03-20T23:52:23.003Z,232
2019-03-20T23:54:07.947Z,231
2019-03-20T23:54:55.901Z,232
2019-03-20T23:57:22.957Z,232
